Date,TemperatureHighF,TemperatureAvgF,TemperatureLowF,DewpointHighF,DewpointAvgF,DewpointLowF,HumidityHigh,HumidityAvg,HumidityLow,PressureMaxIn,PressureMinIn,WindSpeedMaxMPH,WindSpeedAvgMPH,GustSpeedMaxMPH,PrecipitationSumIn
2013-1-1,52,42,35,38,31,22,97,66,40,30.27,30.20,9,1,9,0.00
2013-1-2,55,45,38,35,28,21,77,53,33,30.23,30.13,6,1,6,0.00
2013-1-3,55,43,36,38,31,23,79,64,35,30.26,30.15,3,0,4,0.00
2013-1-4,55,44,39,41,35,30,83,71,48,30.27,30.18,3,0,5,0.00
2013-1-5,45,42,38,43,40,34,99,91,77,30.24,30.05,4,0,5,0.48
2013-1-6,49,43,39,44,41,38,99,93,82,30.18,30.05,7,0,7,0.01
2013-1-7,58,48,40,50,44,38,96,85,70,30.24,30.15,7,0,7,0.00
2013-1-8,61,49,43,52,45,42,97,89,69,30.22,30.11,4,0,4,0.00
2013-1-9,50,44,37,47,41,34,97,93,86,30.14,29.95,7,0,9,0.08
2013-1-10,48,39,35,36,32,30,88,76,54,30.17,30.03,8,2,9,0.00
2013-1-11,48,40,37,39,32,28,89,74,63,30.23,30.11,8,2,10,0.00
2013-1-12,47,38,30,32,27,20,84,64,41,30.23,30.13,8,1,11,0.00
2013-1-13,49,39,29,35,21,8,71,51,25,30.25,30.16,10,1,12,0.00
2013-1-14,51,42,35,31,18,7,66,40,24,30.37,30.22,13,1,15,0.00
2013-1-15,50,40,35,35,30,23,86,67,53,30.46,30.38,4,0,5,0.00
2013-1-16,56,43,36,37,33,29,83,68,44,30.43,30.26,4,0,5,0.00
2013-1-17,62,51,42,41,31,19,72,49,23,30.26,30.15,5,0,6,0.00
2013-1-18,64,54,47,40,29,19,61,39,25,30.20,30.12,4,0,5,0.00
2013-1-19,68,55,48,38,26,16,59,34,18,30.22,30.14,7,1,9,0.00
2013-1-20,64,53,46,38,28,18,60,39,21,30.20,30.11,4,1,5,0.00
2013-1-21,64,54,46,39,29,19,67,40,26,30.15,30.08,7,1,8,0.00
2013-1-22,65,53,45,42,30,20,59,43,27,30.10,29.99,5,1,5,0.00
2013-1-23,54,50,46,49,42,36,98,77,54,30.07,29.94,11,0,12,0.39
2013-1-24,61,51,47,54,49,46,100,95,75,30.17,30.04,5,0,6,0.01
2013-1-25,62,54,48,55,51,47,97,89,76,30.17,30.02,7,0,9,0.00
2013-1-26,56,48,41,49,43,36,98,83,58,30.02,29.93,13,1,15,0.00
2013-1-27,55,44,37,39,34,29,85,68,40,30.16,30.01,8,2,8,0.00
2013-1-28,56,46,40,39,36,33,85,71,50,30.26,30.13,10,2,10,0.00
2013-1-29,62,51,40,44,38,34,81,63,43,30.34,30.24,12,1,13,0.00
2013-1-30,65,55,46,49,42,36,85,62,41,30.30,30.23,11,1,12,0.00
2013-1-31,62,51,44,48,42,36,89,73,44,30.27,30.17,5,1,5,0.00
2013-2-1,66,53,46,47,41,34,82,63,46,30.20,30.11,8,0,8,0.00
2013-2-2,62,51,44,50,44,39,92,79,60,30.26,30.19,6,0,6,0.00
2013-2-3,62,48,41,50,44,39,97,86,64,30.22,30.12,7,0,11,0.00
2013-2-4,60,50,41,50,40,31,82,70,55,30.14,30.04,4,0,5,0.00
2013-2-5,54,45,38,47,42,33,100,88,73,30.12,30.03,8,1,12,0.00
2013-2-6,57,46,38,45,39,33,95,78,48,30.18,30.10,9,0,11,0.00
2013-2-7,53,44,37,44,40,33,98,87,52,30.14,29.96,12,0,18,0.25
2013-2-8,55,44,35,41,35,22,96,73,39,30.00,29.92,12,1,14,0.00
2013-2-9,57,47,40,37,26,20,66,45,29,30.07,29.97,12,2,15,0.00
2013-2-10,62,50,40,45,32,22,76,51,31,30.09,30.00,8,1,9,0.00
2013-2-11,67,52,43,38,29,20,66,42,23,30.20,30.07,9,1,11,0.00
2013-2-12,58,48,40,44,37,32,83,66,48,30.34,30.20,6,0,7,0.00
2013-2-13,66,52,43,49,41,33,75,65,42,30.31,30.18,8,0,8,0.00
2013-2-14,70,60,50,50,39,31,72,47,34,30.21,30.13,7,2,9,0.00
2013-2-15,68,59,50,45,37,28,70,46,30,30.23,30.17,10,2,11,0.00
2013-2-16,70,57,48,49,40,32,68,52,30,30.22,30.00,7,1,8,0.00
2013-2-17,63,53,44,46,38,28,73,58,40,30.00,29.94,7,0,10,0.00
2013-2-18,52,42,37,43,37,28,96,82,50,29.99,29.90,8,0,9,0.00
2013-2-19,44,39,36,40,36,31,97,87,72,29.93,29.72,9,1,9,0.59
2013-2-20,57,47,37,37,32,27,85,58,36,30.03,29.83,8,2,9,0.00
2013-2-21,59,48,40,39,32,25,79,56,27,30.15,30.01,12,2,13,0.00
2013-2-22,61,50,41,44,37,30,77,61,37,30.23,30.14,8,1,10,0.00
2013-2-23,58,48,41,43,33,19,95,59,32,30.23,30.12,8,2,13,0.00
2013-2-24,67,50,44,37,24,13,66,38,13,30.23,30.14,14,2,17,0.00
2013-2-25,65,49,40,46,38,31,81,67,38,30.22,30.15,8,1,10,0.00
2013-2-26,72,56,42,39,25,15,82,35,15,30.19,30.13,11,1,12,0.00
2013-2-27,68,56,45,45,34,16,62,45,23,30.32,30.17,8,1,9,0.00
2013-2-28,65,57,51,55,48,41,85,73,54,30.41,30.32,11,1,14,0.00
2013-3-1,70,57,48,55,49,44,92,75,53,30.40,30.22,6,1,7,0.00
2013-3-2,68,58,51,53,48,44,86,70,53,30.23,30.04,6,0,8,0.00
2013-3-3,62,53,44,51,45,41,93,76,58,30.05,29.99,12,1,12,0.00
2013-3-4,57,45,37,49,40,28,97,85,58,30.12,30.02,10,0,11,0.00
2013-3-5,48,43,36,44,39,21,98,85,53,30.04,29.79,13,1,15,0.16
2013-3-6,51,44,38,45,41,35,98,88,64,30.04,29.80,11,1,11,0.30
2013-3-7,50,44,37,41,37,33,97,78,61,29.98,29.86,6,0,6,0.00
2013-3-8,59,49,41,46,37,30,84,64,42,30.00,29.82,12,2,12,0.00
2013-3-9,66,53,39,47,38,29,89,58,28,30.29,30.00,14,1,14,0.00
2013-3-10,69,58,48,45,32,22,57,38,25,30.31,30.22,10,1,12,0.00
2013-3-11,70,58,49,51,41,31,73,54,35,30.23,30.08,8,0,12,0.00
2013-3-12,73,60,49,56,48,40,84,65,45,30.12,30.05,7,0,7,0.00
2013-3-13,78,62,53,58,50,41,81,65,44,30.13,30.05,4,1,5,0.00
2013-3-14,72,61,52,56,47,31,83,62,30,30.13,30.05,7,1,9,0.00
2013-3-15,72,61,51,56,45,33,75,57,42,30.09,29.99,9,1,11,0.00
2013-3-16,73,60,50,51,43,31,74,56,27,30.07,29.99,11,1,12,0.00
2013-3-17,64,55,46,47,38,26,73,54,35,30.10,30.01,10,2,11,0.00
2013-3-18,66,55,46,48,41,22,74,60,26,30.08,30.00,8,0,9,0.00
2013-3-19,63,53,43,47,42,24,97,68,27,30.10,30.02,5,0,7,0.10
2013-3-20,53,49,46,52,48,44,100,97,94,30.11,30.03,7,0,8,0.60
2013-3-21,63,50,38,48,41,36,99,74,40,30.11,29.99,11,1,11,0.00
2013-3-22,66,54,45,41,27,9,76,38,19,30.10,30.02,11,2,13,0.00
2013-3-23,66,53,40,44,34,22,72,50,35,30.11,30.02,9,1,11,0.00
2013-3-24,68,56,46,50,42,36,78,61,43,30.06,29.94,8,0,9,0.00
2013-3-25,57,48,42,47,42,37,93,80,67,29.98,29.90,13,1,20,0.00
2013-3-26,64,50,40,51,43,39,97,79,52,29.99,29.92,9,0,12,0.00
2013-3-27,58,51,46,51,47,42,96,87,77,30.00,29.91,7,0,8,0.00
2013-3-28,62,52,45,53,48,43,96,86,68,30.07,29.98,6,0,6,0.00
2013-3-29,71,59,48,56,51,46,94,75,47,30.07,29.99,6,0,7,0.00
2013-3-30,64,57,52,57,51,48,95,81,62,30.03,29.96,7,0,8,0.12
2013-3-31,58,52,48,54,50,47,98,93,75,30.05,29.96,10,0,10,0.27
2013-4-1,61,52,46,55,50,45,99,94,78,30.14,30.02,7,0,11,0.07
2013-4-2,65,55,47,56,49,43,98,84,62,30.16,30.07,12,0,12,0.01
2013-4-3,70,58,48,56,49,39,95,75,53,30.10,29.96,5,0,8,0.00
2013-4-4,55,51,47,53,49,37,99,94,53,30.10,29.95,7,0,9,1.07
2013-4-5,58,52,48,54,50,48,99,93,79,30.17,30.09,9,0,9,0.04
2013-4-6,61,52,48,56,50,46,100,93,76,30.17,30.11,9,1,12,0.01
2013-4-7,56,50,46,53,48,44,99,94,83,30.16,29.78,13,1,18,0.17
2013-4-8,67,51,40,47,36,17,96,62,18,30.04,29.76,13,2,14,0.05
2013-4-9,75,62,52,42,30,20,44,32,14,30.09,30.03,11,2,11,0.00
2013-4-10,81,70,60,61,46,32,65,43,28,30.14,29.98,12,2,12,0.00
2013-4-11,74,61,49,54,44,29,84,58,26,29.98,29.80,13,1,13,0.00
2013-4-12,73,59,49,57,45,36,80,61,32,29.87,29.79,8,0,11,0.00
2013-4-13,68,57,48,53,43,37,78,60,46,29.85,29.76,9,1,11,0.00
2013-4-14,69,54,44,47,38,21,93,58,30,29.89,29.80,15,1,15,0.00
2013-4-15,58,47,39,42,36,29,94,68,36,29.93,29.80,12,2,17,0.00
2013-4-16,66,53,43,39,28,16,63,41,17,30.17,29.93,12,2,13,0.00
2013-4-17,69,58,50,31,24,16,41,29,15,30.26,30.16,11,2,13,0.00
2013-4-18,73,63,56,46,33,21,60,33,23,30.23,30.16,10,1,11,0.00
2013-4-19,79,63,53,57,48,42,74,58,34,30.19,30.03,9,1,12,0.00
2013-4-20,77,66,59,52,39,30,62,39,27,30.06,29.95,11,2,13,0.00
2013-4-21,82,70,57,52,41,32,66,38,22,30.00,29.90,12,1,12,0.00
2013-4-22,87,73,63,55,41,26,55,33,12,29.93,29.82,9,2,11,0.00
2013-4-23,81,68,55,46,28,14,48,24,10,29.90,29.80,13,2,15,0.00
2013-4-24,72,59,46,54,41,26,92,56,23,29.90,29.77,9,1,13,0.00
2013-4-25,62,51,46,51,47,43,97,86,67,30.10,29.90,11,1,13,0.00
2013-4-26,75,56,42,58,47,41,98,77,42,30.20,30.09,6,0,7,0.00
2013-4-27,81,60,42,60,48,40,96,69,28,30.19,30.03,6,0,7,0.00
2013-4-28,84,68,55,60,51,43,76,55,38,30.03,29.86,9,0,9,0.00
2013-4-29,84,74,62,56,47,39,62,39,29,29.86,29.70,12,1,12,0.00
2013-4-30,86,72,59,50,32,1,64,30,4,29.83,29.72,16,2,16,0.00
2013-5-1,85,72,64,31,17,8,28,12,8,30.04,29.80,15,2,20,0.00
2013-5-2,88,76,69,43,24,8,32,15,9,30.12,30.03,11,2,12,0.00
2013-5-3,86,74,61,49,35,20,51,25,15,30.03,29.74,12,0,12,0.00
2013-5-4,84,74,51,46,36,23,84,28,14,29.74,29.50,11,2,13,0.00
2013-5-5,62,54,50,50,48,46,88,79,61,29.80,29.54,7,0,10,0.00
2013-5-6,66,56,49,52,49,46,91,78,60,29.95,29.80,9,0,9,0.00
2013-5-7,68,58,52,54,49,42,92,74,52,30.01,29.94,12,1,12,0.00
2013-5-8,63,52,47,53,48,45,96,87,69,30.10,29.99,11,1,14,0.00
2013-5-9,65,54,46,54,49,45,97,84,66,30.13,30.05,12,1,14,0.00
2013-5-10,82,60,46,59,52,44,98,76,40,30.15,30.06,8,0,8,0.00
2013-5-11,87,69,52,63,52,39,91,59,27,30.10,30.01,10,0,10,0.00
2013-5-12,80,68,57,60,49,36,72,53,27,30.09,29.98,12,0,13,0.00
2013-5-13,82,67,54,59,50,38,72,54,40,30.03,29.89,11,0,11,0.00
2013-5-14,81,66,55,55,49,36,81,56,26,29.92,29.85,11,0,16,0.00
2013-5-15,72,60,48,51,46,41,80,61,42,29.99,29.90,11,1,13,0.00
2013-5-16,65,57,49,55,48,45,89,73,57,29.98,29.91,14,2,20,0.00
2013-5-17,64,54,45,49,44,36,91,70,51,30.03,29.92,15,1,18,0.00
2013-5-18,73,60,45,52,46,41,88,63,36,30.10,30.02,9,1,14,0.00
2013-5-19,80,68,54,49,41,29,66,39,18,30.09,29.96,11,1,14,0.00
2013-5-20,83,75,66,47,36,28,40,25,17,29.97,29.85,12,1,14,0.00
2013-5-21,70,61,47,46,39,26,64,45,23,29.92,29.82,18,2,20,0.00
2013-5-22,63,52,43,42,33,15,72,50,19,29.98,29.87,13,2,15,0.00
2013-5-23,66,54,41,44,39,34,84,61,39,29.98,29.85,12,1,15,0.00
2013-5-24,68,57,45,45,41,32,73,56,40,29.96,29.89,13,1,15,0.00
2013-5-25,68,55,44,47,44,40,85,67,45,29.98,29.90,12,1,14,0.00
2013-5-26,64,56,50,52,48,44,91,77,61,30.07,29.98,13,1,15,0.00
2013-5-27,57,54,49,55,49,40,97,84,60,30.07,29.96,11,1,11,0.21
2013-5-28,66,59,52,57,54,51,98,84,67,29.97,29.88,13,1,14,0.02
2013-5-29,69,60,52,56,51,44,89,73,58,29.93,29.86,14,1,17,0.00
2013-5-30,74,61,48,50,45,37,82,58,31,29.95,29.88,13,1,15,0.00
2013-5-31,87,72,56,53,47,42,69,44,24,29.98,29.87,12,1,13,0.00
2013-6-1,91,75,63,56,49,41,64,41,23,29.88,29.72,9,0,12,0.00
2013-6-2,84,70,56,56,50,45,79,51,28,29.72,29.61,11,0,11,0.00
2013-6-3,71,60,51,56,51,48,92,75,52,29.82,29.66,13,1,16,0.00
2013-6-4,67,55,48,54,50,47,96,82,60,29.93,29.81,12,1,12,0.00
2013-6-5,73,57,48,57,51,47,100,81,55,29.97,29.88,9,1,13,0.00
2013-6-6,86,62,48,62,53,47,98,76,39,29.91,29.81,5,0,6,0.00
2013-6-7,98,74,52,64,53,37,95,57,16,29.84,29.70,7,0,9,0.00
2013-6-8,97,80,61,64,57,48,73,47,30,29.73,29.64,11,0,11,0.00
2013-6-9,64,57,52,55,52,50,95,85,71,29.86,29.72,10,1,13,0.00
2013-6-10,58,54,52,54,52,49,98,91,81,29.95,29.76,11,0,16,0.02
2013-6-11,75,61,50,58,53,43,96,75,53,29.97,29.86,11,1,13,0.00
2013-6-12,76,63,49,51,45,36,73,53,33,29.93,29.86,13,1,14,0.00
2013-6-13,79,65,50,50,43,37,77,47,29,30.06,29.92,12,1,14,0.00
2013-6-14,82,72,62,46,34,12,52,26,10,29.96,29.78,11,0,12,0.00
2013-6-15,81,64,51,56,48,36,89,59,30,29.93,29.77,12,0,15,0.00
2013-6-16,78,67,56,54,47,38,71,49,36,30.02,29.92,14,1,17,0.00
2013-6-17,73,64,57,55,49,42,80,61,44,30.03,29.95,15,2,18,0.00
2013-6-18,66,57,51,51,48,45,87,72,51,29.98,29.92,15,1,20,0.00
2013-6-19,71,59,50,49,46,42,80,63,38,30.03,29.95,13,1,18,0.00
2013-6-20,75,63,53,50,45,40,74,54,36,29.97,29.89,13,1,14,0.00
2013-6-21,79,67,55,51,45,40,67,47,26,29.94,29.87,12,1,13,0.00
2013-6-22,83,72,60,53,46,36,60,42,27,29.88,29.77,12,1,13,0.00
2013-6-23,66,60,54,59,54,47,96,82,51,29.81,29.74,11,1,11,0.00
2013-6-24,60,56,53,57,54,52,98,94,84,29.89,29.75,8,0,8,0.18
2013-6-25,61,59,55,61,58,54,99,99,98,29.97,29.86,6,0,8,0.90
2013-6-26,77,66,60,67,61,58,100,88,62,30.04,29.95,7,0,7,0.05
2013-6-27,85,72,58,66,62,56,97,73,46,30.06,29.98,11,0,12,0.00
2013-6-28,96,82,68,70,58,46,77,48,24,30.00,29.86,12,1,12,0.00
2013-6-29,97,85,73,64,55,46,54,37,20,29.87,29.74,10,1,12,0.00
2013-6-30,96,81,70,63,56,51,62,44,26,29.78,29.70,10,0,10,0.00
2013-7-1,98,80,67,66,59,53,76,51,27,29.80,29.72,9,0,10,0.00
2013-7-2,94,79,66,66,60,54,73,53,35,29.84,29.75,10,0,13,0.00
2013-7-3,96,77,62,67,61,55,83,61,32,29.84,29.72,13,0,13,0.00
2013-7-4,103,86,74,67,55,40,70,38,18,29.73,29.60,9,1,9,0.00
2013-7-5,76,65,53,58,51,40,93,62,28,29.70,29.60,6,0,7,0.00
2013-7-6,77,61,51,59,54,49,97,79,51,29.77,29.69,5,0,6,0.00
2013-7-7,85,64,49,59,49,26,97,63,20,29.81,29.74,7,0,7,0.00
2013-7-8,84,65,47,58,49,30,88,59,30,29.93,29.81,5,0,6,0.00
2013-7-9,95,73,56,58,48,30,75,45,14,29.99,29.90,7,0,8,0.00
2013-7-10,89,71,56,59,43,28,69,39,15,29.92,29.83,8,0,11,0.00
2013-7-11,80,60,45,57,49,39,97,70,35,29.89,29.82,11,0,12,0.00
2013-7-12,80,60,46,59,51,44,97,75,41,29.90,29.83,11,0,12,0.00
2013-7-13,84,67,52,59,49,35,86,57,29,29.92,29.85,9,0,10,0.00
2013-7-14,86,66,53,59,49,29,84,56,29,29.94,29.84,7,0,8,0.00
2013-7-15,72,56,45,56,48,35,96,77,43,29.87,29.79,13,0,13,0.00
2013-7-16,66,55,49,56,51,48,100,88,68,30.00,29.83,8,1,9,0.02
2013-7-17,81,62,49,60,53,46,98,74,42,30.07,29.99,8,0,9,0.01
2013-7-18,86,69,55,61,51,45,77,57,28,30.01,29.89,11,0,11,0.00
2013-7-19,92,69,52,61,53,48,89,61,30,29.89,29.78,8,0,9,0.00
2013-7-20,88,67,50,63,55,48,97,69,38,29.79,29.70,6,0,6,0.00
2013-7-21,85,68,53,60,52,46,92,62,31,29.84,29.71,12,0,12,0.00
2013-7-22,84,69,58,59,53,45,86,59,35,29.93,29.83,10,0,13,0.00
2013-7-23,79,70,61,60,48,26,75,48,17,29.96,29.88,8,0,12,0.00
2013-7-24,88,74,63,60,51,38,66,46,26,29.94,29.85,11,0,12,0.00
2013-7-25,88,72,61,60,54,42,76,55,25,29.94,29.85,8,0,14,0.00
2013-7-26,86,66,49,62,53,46,94,65,31,30.04,29.94,12,0,12,0.00
2013-7-27,81,63,48,61,53,46,97,73,45,29.97,29.82,8,0,11,0.00
2013-7-28,79,60,48,59,52,46,100,76,41,29.83,29.75,8,0,9,0.00
2013-7-29,72,57,48,56,51,46,95,82,55,29.98,29.79,14,0,15,0.00
2013-7-30,77,59,47,59,52,46,98,78,51,30.08,29.98,9,0,10,0.00
2013-7-31,76,61,47,58,50,44,98,72,46,30.05,29.95,13,1,13,0.00
2013-8-1,74,63,51,55,50,44,88,64,44,30.01,29.91,14,1,15,0.00
2013-8-2,81,66,54,58,49,39,76,56,38,29.93,29.85,12,0,12,0.00
2013-8-3,79,62,48,57,51,46,97,71,40,29.93,29.86,10,0,13,0.00
2013-8-4,77,58,46,58,50,44,97,77,47,29.96,29.91,7,0,9,0.00
2013-8-5,79,60,46,58,49,39,97,73,27,29.99,29.91,11,0,12,0.00
2013-8-6,70,56,47,55,50,44,97,83,56,30.01,29.93,14,1,16,0.00
2013-8-7,66,57,51,56,53,50,96,88,69,30.08,30.00,11,1,11,0.00
2013-8-8,71,58,50,59,53,49,97,83,62,30.01,29.90,12,1,15,0.00
2013-8-9,70,56,47,58,51,45,98,85,61,29.95,29.88,12,1,15,0.00
2013-8-10,72,59,51,58,54,50,98,84,57,30.02,29.95,12,1,14,0.00
2013-8-11,80,64,52,60,53,46,95,71,32,29.98,29.89,9,0,12,0.00
2013-8-12,82,65,52,60,51,44,93,63,32,29.96,29.89,11,0,13,0.00
2013-8-13,88,71,55,60,50,42,77,50,28,29.95,29.87,13,0,14,0.00
2013-8-14,86,72,58,56,50,41,72,49,30,29.92,29.84,12,1,15,0.00
2013-8-15,82,70,60,64,59,54,88,69,50,29.91,29.85,14,1,17,0.00
2013-8-16,84,72,62,64,56,38,90,62,27,29.94,29.88,15,1,15,0.00
2013-8-17,85,71,61,61,55,48,73,59,38,29.94,29.80,12,0,12,0.00
2013-8-18,94,75,56,64,57,52,91,59,32,29.84,29.75,11,0,11,0.00
2013-8-19,94,78,63,66,59,55,74,52,30,29.84,29.75,7,0,9,0.00
2013-8-20,85,65,56,63,56,44,93,75,39,29.85,29.75,6,0,7,0.00
2013-8-21,80,62,53,59,53,41,96,74,46,29.90,29.83,11,1,12,0.00
2013-8-22,72,60,51,57,52,41,95,76,50,29.93,29.85,11,1,14,0.00
2013-8-23,83,64,51,60,53,47,97,71,32,29.89,29.76,11,0,11,0.00
2013-8-24,78,65,56,57,53,45,90,67,43,29.84,29.77,13,1,15,0.00
2013-8-25,77,65,57,63,59,56,96,82,58,29.90,29.83,9,1,11,0.00
2013-8-26,76,64,54,61,55,51,96,74,51,29.97,29.86,12,1,13,0.00
2013-8-27,82,68,58,58,52,45,74,60,40,29.87,29.77,14,1,17,0.00
2013-8-28,79,67,56,63,57,52,91,71,53,29.89,29.79,12,1,14,0.00
2013-8-29,63,58,56,58,56,54,97,93,81,29.94,29.89,0,0,4,0.00
2013-9-3,62,61,59,55,54,52,80,77,75,29.92,29.88,0,0,1,0.00
2013-9-4,59,56,54,52,51,50,91,85,78,29.94,29.91,0,0,1,0.00
2013-9-6,90,78,68,54,49,45,49,36,25,29.94,29.81,8,1,9,0.00
2013-9-7,92,77,64,53,45,34,49,33,19,29.84,29.77,9,0,10,0.00
2013-9-8,94,78,64,61,48,36,56,36,20,29.81,29.72,8,0,9,0.00
2013-9-9,95,82,69,58,46,38,45,31,18,29.75,29.64,9,0,10,0.00
2013-9-10,77,65,57,60,54,45,93,69,39,29.86,29.65,13,0,13,0.00
2013-9-11,71,61,57,60,57,56,95,87,65,29.97,29.85,11,0,11,0.00
2013-9-12,80,64,55,64,57,54,98,82,56,29.95,29.84,10,0,11,0.00
2013-9-13,85,67,55,61,55,50,93,69,36,29.86,29.70,9,0,9,0.00
2013-9-14,79,65,54,60,54,50,92,70,47,29.76,29.68,12,0,12,0.00
2013-9-15,76,62,51,58,54,48,94,78,52,29.82,29.71,14,1,14,0.00
2013-9-16,80,66,56,61,55,51,93,71,45,29.86,29.73,11,0,13,0.00
2013-9-17,75,64,55,56,51,48,84,64,46,29.84,29.74,12,1,15,0.00
2013-9-18,82,72,60,50,45,38,66,39,24,29.88,29.78,11,1,17,0.00
2013-9-19,88,71,60,52,35,0,50,30,6,29.82,29.72,9,0,12,0.00
2013-9-20,73,62,55,59,48,12,95,64,15,29.80,29.70,11,1,13,0.00
2013-9-21,62,57,53,60,55,50,99,93,75,29.87,29.76,8,0,8,0.69
2013-9-22,70,59,48,58,51,47,96,78,51,29.98,29.86,15,0,15,0.00
2013-9-23,80,65,54,60,54,50,89,70,42,30.00,29.90,15,0,15,0.00
2013-9-24,76,62,54,54,50,46,80,66,38,29.94,29.85,13,1,14,0.00
2013-9-25,54,52,51,47,46,45,82,79,75,29.88,29.85,6,0,9,0.00
2013-9-29,60,60,60,59,59,59,98,97,95,30.04,30.01,6,0,6,0.19
2013-9-30,66,61,53,62,58,45,100,93,62,30.03,29.92,6,0,11,0.24
2013-10-1,76,58,48,57,49,45,95,74,40,29.98,29.90,7,0,12,0.00
2013-10-2,73,61,52,53,46,32,83,60,38,29.97,29.90,14,1,14,0.00
2013-10-3,73,62,51,39,31,23,58,33,17,30.05,29.95,12,2,14,0.00
2013-10-6,81,70,61,39,32,26,32,24,18,30.04,29.97,4,0,5,0.00
2013-10-7,82,68,58,38,30,19,36,24,10,29.98,29.83,9,0,11,0.00
2013-10-8,76,63,54,50,40,30,61,44,26,29.86,29.65,7,0,9,0.00
2013-10-9,69,58,49,43,40,34,75,52,37,29.74,29.56,9,1,12,0.00
2013-10-10,71,59,52,49,41,34,69,52,34,29.96,29.74,6,1,8,0.00
2013-10-11,51,50,49,40,40,40,71,68,65,29.97,29.96,0,0,0,0.00
2013-10-12,59,57,57,45,44,43,64,61,55,29.88,29.86,9,3,10,0.00
2013-10-13,75,60,54,45,39,33,66,46,24,30.04,29.88,9,1,10,0.00
2013-10-14,76,64,55,43,37,31,47,37,23,30.08,29.98,7,1,9,0.00
2013-10-15,82,66,56,35,30,25,39,27,13,30.01,29.93,8,1,8,0.00
2013-10-16,79,66,54,38,31,25,38,28,17,30.06,29.97,6,0,8,0.00
2013-10-17,82,66,55,41,33,29,40,30,16,30.05,29.94,8,0,9,0.00
2013-10-18,79,66,58,47,39,32,50,38,28,30.01,29.95,6,0,8,0.00
2013-10-19,81,66,56,44,39,33,53,38,23,30.04,29.97,6,0,6,0.00
2013-10-20,80,67,57,49,40,33,48,38,25,29.99,29.87,8,0,8,0.00
2013-10-21,72,59,52,50,43,39,73,57,41,29.94,29.88,3,0,4,0.00
2013-10-24,67,55,41,50,45,36,92,71,53,30.07,29.95,8,0,8,0.00
2013-10-25,72,58,46,52,44,34,83,60,41,30.15,30.07,5,0,8,0.00
2013-10-26,81,65,54,50,42,34,55,44,28,30.11,29.98,7,0,8,0.00
2013-10-27,64,54,47,48,42,33,92,67,36,29.98,29.59,14,1,18,0.00
2013-10-28,62,51,42,45,42,39,91,73,48,29.81,29.62,9,1,9,0.00
2013-10-29,60,50,43,47,44,40,96,83,60,30.04,29.80,5,0,6,0.00
2013-10-30,69,53,44,49,44,40,93,73,44,30.14,30.04,7,0,8,0.00
2013-10-31,74,58,48,48,44,41,77,61,35,30.15,30.05,8,0,8,0.00
2013-11-1,74,60,51,45,42,39,73,54,32,30.12,30.00,5,0,7,0.00
2013-11-2,73,60,52,52,44,38,72,57,33,30.01,29.86,9,1,13,0.00
2013-11-3,65,55,48,42,26,13,69,33,20,30.01,29.89,8,1,10,0.00
2013-11-4,65,56,49,31,26,21,39,31,19,30.07,29.88,12,1,12,0.00
2013-11-5,72,61,52,36,32,26,50,34,24,30.19,30.04,8,1,11,0.00
2013-11-6,70,59,52,41,36,32,53,43,30,30.23,30.15,6,0,6,0.00
2013-11-7,73,60,52,45,38,34,72,47,28,30.15,30.04,8,0,9,0.00
2013-11-8,72,58,48,51,40,7,74,53,17,30.05,29.92,9,0,10,0.00
2013-11-9,70,58,47,46,42,30,74,57,38,30.01,29.95,5,0,6,0.00
2013-11-10,66,54,48,50,44,39,83,69,44,30.08,29.99,5,0,7,0.00
2013-11-11,68,56,46,49,42,39,82,61,41,30.16,30.06,4,0,6,0.00
2013-11-12,67,59,55,49,44,39,63,56,48,30.25,30.13,5,0,7,0.00
2013-11-13,77,65,57,52,45,37,60,49,35,30.22,30.05,9,0,9,0.00
2013-11-14,64,58,53,52,44,28,76,59,37,30.06,29.82,9,1,10,0.00
2013-11-15,65,54,46,41,36,29,65,50,35,29.83,29.70,11,1,13,0.00
2013-11-16,66,52,45,48,41,32,87,67,41,29.89,29.72,9,1,11,0.00
2013-11-17,59,48,42,49,44,40,97,87,67,30.07,29.89,6,0,6,0.00
2013-11-18,57,48,42,46,43,40,95,86,63,30.14,30.06,8,0,8,0.00
2013-11-19,53,50,48,53,49,46,100,98,94,30.09,29.92,3,0,4,0.90
2013-11-20,54,52,47,54,52,47,99,99,97,29.92,29.83,8,0,11,0.36
2013-11-21,59,52,47,49,32,15,99,54,21,29.96,29.86,12,3,19,0.00
2013-11-22,62,61,60,11,8,6,14,12,11,29.93,29.89,18,6,20,0.00
2013-11-23,61,55,46,35,23,8,55,32,13,30.07,29.92,14,1,17,0.00
2013-11-24,60,48,40,41,35,26,81,61,44,30.23,30.07,6,0,6,0.00
2013-11-25,60,49,42,44,40,37,88,72,49,30.31,30.23,6,0,7,0.00
2013-11-26,61,51,44,43,38,32,82,62,40,30.26,30.03,4,0,5,0.00
2013-11-27,62,52,46,44,40,36,75,63,49,30.03,29.83,6,0,8,0.00
2013-11-28,70,57,48,45,40,37,72,55,34,30.04,29.85,8,0,8,0.00
2013-11-29,66,55,50,46,40,35,70,58,43,30.19,30.04,4,0,5,0.00
2013-11-30,67,56,50,48,42,38,72,60,47,30.24,30.17,4,0,6,0.00
2013-12-1,70,59,53,49,43,40,68,57,43,30.31,30.19,5,0,5,0.00
2013-12-2,67,56,51,50,45,31,96,69,44,30.19,29.91,8,1,14,0.00
2013-12-3,54,46,42,50,32,16,96,62,34,29.92,29.81,11,1,13,0.00
2013-12-4,50,40,32,29,22,11,82,49,30,30.07,29.91,6,0,7,0.00
2013-12-5,47,38,31,30,18,10,76,47,28,30.14,30.06,6,0,7,0.00
2013-12-6,44,39,29,43,33,24,97,81,59,30.17,29.90,6,0,7,0.44
2013-12-7,44,36,29,40,28,23,95,75,47,30.24,29.90,10,1,13,0.00
2013-12-8,46,35,28,26,20,7,88,55,28,30.30,30.21,6,0,7,0.00
2013-12-9,49,38,32,27,18,7,71,46,26,30.41,30.29,8,0,12,0.00
2013-12-10,52,41,32,31,23,14,68,50,27,30.41,30.20,7,0,8,0.00
2013-12-11,56,46,38,33,27,21,62,48,37,30.23,30.18,8,1,9,0.00
2013-12-12,60,48,42,35,28,20,67,46,29,30.24,30.15,4,0,5,0.00
2013-12-13,60,49,40,41,34,29,69,58,46,30.31,30.20,4,0,5,0.00
2013-12-14,65,51,44,39,35,32,73,55,29,30.37,30.29,7,0,8,0.00
2013-12-15,63,53,44,40,33,25,74,46,28,30.35,30.22,5,0,5,0.00
2013-12-16,68,60,52,40,30,19,51,34,17,30.23,30.10,10,1,11,0.00
2013-12-17,70,58,52,42,32,24,51,37,25,30.15,30.00,5,0,6,0.00
2013-12-18,63,55,47,44,36,29,72,50,39,30.00,29.69,10,1,10,0.00
2013-12-19,58,49,42,36,25,5,77,42,17,29.90,29.66,12,3,16,0.00
2013-12-20,67,53,40,41,15,-11,57,24,6,29.98,29.89,9,1,12,0.00
2013-12-21,64,55,46,48,43,36,86,65,41,30.06,29.92,9,1,12,0.00
2013-12-22,67,57,51,44,37,31,64,48,35,30.26,30.06,7,0,9,0.00
2013-12-23,64,53,48,43,40,37,71,61,43,30.37,30.25,4,0,5,0.00
2013-12-24,73,58,50,44,38,26,63,48,26,30.31,30.18,7,1,8,0.00
2013-12-25,67,56,49,39,29,20,62,37,21,30.26,30.18,10,1,10,0.00
2013-12-26,70,59,51,38,29,22,44,33,23,30.22,30.14,5,1,6,0.00
2013-12-27,57,51,48,31,27,24,43,39,34,30.20,30.09,4,0,4,0.00
2013-12-28,71,58,46,32,22,13,52,27,15,30.11,30.01,11,2,12,0.00
2013-12-29,68,58,48,31,18,3,41,22,10,30.15,30.05,10,1,12,0.00
2013-12-30,64,52,44,35,30,19,62,44,29,30.22,30.14,6,0,6,0.00
2013-12-31,64,51,44,40,32,24,62,48,33,30.24,30.15,4,0,4,0.00
2014-1-1,66,55,48,39,29,20,51,36,27,30.18,30.11,4,0,4,0.00
2014-1-2,66,56,49,40,34,29,51,45,35,30.14,30.03,4,0,4,0.00